Time,TemperatureF,DewpointF,PressureIn,WindDirection,WindDirectionDegrees,WindSpeedMPH,WindSpeedGustMPH,Humidity,HourlyPrecipIn,Conditions,Clouds,dailyrainin,SoftwareType,DateUTC
2013-07-06 00:01:00,51.0,34.0,-100.00,West,259,6.0,11.0,52,-99.99,,,-99.99,,2013-07-06 06:01:00,
2013-07-06 00:12:00,51.0,33.0,-100.00,WSW,256,5.0,10.0,49,-99.99,,,-99.99,,2013-07-06 06:12:00,
2013-07-06 00:22:00,51.0,33.0,-100.00,WSW,256,5.0,10.0,49,-99.99,,,-99.99,,2013-07-06 06:22:00,
2013-07-06 00:33:00,51.0,33.0,-100.00,West,267,4.0,9.0,50,-99.99,,,-99.99,,2013-07-06 06:33:00,
2013-07-06 00:43:00,50.0,33.0,-100.00,NW,313,6.0,9.0,52,-99.99,,,-99.99,,2013-07-06 06:43:00,
2013-07-06 00:53:00,50.0,33.0,-100.00,NW,313,6.0,9.0,52,-99.99,,,-99.99,,2013-07-06 06:53:00,
2013-07-06 01:01:00,51.0,33.0,-100.00,WNW,297,7.0,9.0,49,-99.99,,,-99.99,,2013-07-06 07:01:00,
2013-07-06 01:12:00,52.0,33.0,-100.00,West,274,8.0,14.0,49,-99.99,,,-99.99,,2013-07-06 07:12:00,
2013-07-06 01:22:00,52.0,33.0,-100.00,West,274,8.0,14.0,49,-99.99,,,-99.99,,2013-07-06 07:22:00,
2013-07-06 01:33:00,52.0,33.0,-100.00,WSW,258,8.0,19.0,49,-99.99,,,-99.99,,2013-07-06 07:33:00,
2013-07-06 01:52:00,51.0,33.0,-100.00,West,278,7.0,16.0,50,-99.99,,,-99.99,,2013-07-06 07:52:00,
2013-07-06 02:02:00,51.0,34.0,-100.00,WNW,294,9.0,15.0,52,-99.99,,,-99.99,,2013-07-06 08:02:00,
2013-07-06 02:21:00,50.0,34.0,-100.00,NW,307,6.0,11.0,53,-99.99,,,-99.99,,2013-07-06 08:21:00,
2013-07-06 02:33:00,50.0,34.0,-100.00,WNW,299,8.0,16.0,54,-99.99,,,-99.99,,2013-07-06 08:33:00,
2013-07-06 02:43:00,50.0,34.0,-100.00,WNW,296,9.0,24.0,53,-99.99,,,-99.99,,2013-07-06 08:43:00,
2013-07-06 02:54:00,50.0,34.0,-100.00,WNW,296,9.0,24.0,53,-99.99,,,-99.99,,2013-07-06 08:54:00,
2013-07-06 03:02:00,51.0,34.0,-100.00,WNW,291,11.0,18.0,53,-99.99,,,-99.99,,2013-07-06 09:02:00,
2013-07-06 03:22:00,50.0,34.0,-100.00,WNW,303,9.0,17.0,54,-99.99,,,-99.99,,2013-07-06 09:22:00,
2013-07-06 03:33:00,50.0,34.0,-100.00,WNW,303,9.0,16.0,54,-99.99,,,-99.99,,2013-07-06 09:33:00,
2013-07-06 03:52:00,50.0,34.0,-100.00,WNW,303,8.0,13.0,55,-99.99,,,-99.99,,2013-07-06 09:52:00,
2013-07-06 04:02:00,50.0,35.0,-100.00,WNW,293,8.0,14.0,56,-99.99,,,-99.99,,2013-07-06 10:02:00,
2013-07-06 04:11:00,50.0,34.0,-100.00,WNW,284,7.0,15.0,55,-99.99,,,-99.99,,2013-07-06 10:11:00,
2013-07-06 04:22:00,50.0,34.0,-100.00,WNW,284,7.0,15.0,55,-99.99,,,-99.99,,2013-07-06 10:22:00,
2013-07-06 04:33:00,50.0,34.0,-100.00,West,280,7.0,15.0,55,-99.99,,,-99.99,,2013-07-06 10:33:00,
2013-07-06 04:42:00,50.0,34.0,-100.00,West,274,8.0,18.0,55,-99.99,,,-99.99,,2013-07-06 10:42:00,
2013-07-06 04:53:00,50.0,34.0,-100.00,West,274,8.0,18.0,55,-99.99,,,-99.99,,2013-07-06 10:53:00,
2013-07-06 05:01:00,50.0,35.0,-100.00,West,278,8.0,17.0,56,-99.99,,,-99.99,,2013-07-06 11:01:00,
2013-07-06 05:11:00,50.0,35.0,-100.00,West,266,9.0,16.0,57,-99.99,,,-99.99,,2013-07-06 11:11:00,
2013-07-06 05:22:00,50.0,35.0,-100.00,West,266,9.0,16.0,57,-99.99,,,-99.99,,2013-07-06 11:22:00,
2013-07-06 05:33:00,50.0,35.0,-100.00,West,277,8.0,18.0,57,-99.99,,,-99.99,,2013-07-06 11:33:00,
2013-07-06 05:42:00,49.0,35.0,-100.00,WNW,284,7.0,15.0,59,-99.99,,,-99.99,,2013-07-06 11:42:00,
2013-07-06 05:53:00,49.0,35.0,-100.00,WNW,284,7.0,15.0,59,-99.99,,,-99.99,,2013-07-06 11:53:00,
2013-07-06 06:01:00,49.0,35.0,-100.00,WSW,250,6.0,15.0,59,-99.99,,,-99.99,,2013-07-06 12:01:00,
2013-07-06 06:22:00,48.0,35.0,-100.00,WSW,251,5.0,11.0,61,-99.99,,,-99.99,,2013-07-06 12:22:00,
2013-07-06 06:33:00,48.0,35.0,-100.00,West,265,5.0,14.0,61,-99.99,,,-99.99,,2013-07-06 12:33:00,
2013-07-06 06:52:00,48.0,36.0,-100.00,WSW,256,5.0,12.0,62,-99.99,,,-99.99,,2013-07-06 12:52:00,
2013-07-06 07:11:00,48.0,36.0,-100.00,WSW,239,4.0,10.0,63,-99.99,,,-99.99,,2013-07-06 13:11:00,
2013-07-06 07:22:00,49.0,37.0,-100.00,West,264,5.0,13.0,63,-99.99,,,-99.99,,2013-07-06 13:22:00,
2013-07-06 07:43:00,49.0,37.0,-100.00,WNW,282,5.0,13.0,63,-99.99,,,-99.99,,2013-07-06 13:43:00,
2013-07-06 07:52:00,49.0,37.0,-100.00,West,269,5.0,10.0,63,-99.99,,,-99.99,,2013-07-06 13:52:00,
2013-07-06 08:02:00,50.0,38.0,-100.00,WSW,251,4.0,11.0,63,-99.99,,,-99.99,,2013-07-06 14:02:00,
2013-07-06 08:11:00,50.0,38.0,-100.00,WSW,251,4.0,11.0,63,-99.99,,,-99.99,,2013-07-06 14:11:00,
2013-07-06 08:42:00,53.0,39.0,-100.00,North,3,3.0,10.0,58,-99.99,,,-99.99,,2013-07-06 14:42:00,
2013-07-06 08:53:00,53.0,39.0,-100.00,North,3,3.0,10.0,58,-99.99,,,-99.99,,2013-07-06 14:53:00,
2013-07-06 09:02:00,58.0,40.0,-100.00,NNW,342,3.0,14.0,51,-99.99,,,-99.99,,2013-07-06 15:02:00,
2013-07-06 09:22:00,59.0,40.0,-100.00,NW,312,3.0,15.0,49,-99.99,,,-99.99,,2013-07-06 15:22:00,
2013-07-06 09:33:00,58.0,40.0,-100.00,East,81,3.0,10.0,51,-99.99,,,-99.99,,2013-07-06 15:33:00,
2013-07-06 09:53:00,58.0,40.0,-100.00,East,93,3.0,14.0,52,-99.99,,,-99.99,,2013-07-06 15:53:00,
2013-07-06 10:03:00,58.0,40.0,-100.00,ENE,78,2.0,9.0,52,-99.99,,,-99.99,,2013-07-06 16:03:00,
2013-07-06 10:13:00,58.0,41.0,-100.00,NNE,21,4.0,13.0,53,-99.99,,,-99.99,,2013-07-06 16:13:00,
2013-07-06 10:23:00,58.0,41.0,-100.00,NNE,21,4.0,13.0,53,-99.99,,,-99.99,,2013-07-06 16:23:00,
2013-07-06 10:36:00,56.0,41.0,-100.00,SE,124,2.0,6.0,57,-99.99,,,-99.99,,2013-07-06 16:36:00,
2013-07-06 10:46:00,56.0,41.0,-100.00,ESE,102,2.0,7.0,58,-99.99,,,-99.99,,2013-07-06 16:46:00,
2013-07-06 11:15:00,56.0,41.0,-100.00,SE,140,3.0,8.0,58,-99.99,,,-99.99,,2013-07-06 17:15:00,
2013-07-06 11:26:00,56.0,41.0,-100.00,SE,140,3.0,8.0,58,-99.99,,,-99.99,,2013-07-06 17:26:00,
2013-07-06 11:46:00,58.0,43.0,-100.00,South,177,3.0,8.0,58,-99.99,,,-99.99,,2013-07-06 17:46:00,
2013-07-06 12:05:00,58.0,43.0,-100.00,South,177,3.0,8.0,58,-99.99,,,-99.99,,2013-07-06 18:05:00,
2013-07-06 12:26:00,59.0,43.0,-100.00,SSE,157,3.0,7.0,56,-99.99,,,-99.99,,2013-07-06 18:26:00,
2013-07-06 12:47:00,62.0,43.0,-100.00,South,172,5.0,12.0,50,-99.99,,,-99.99,,2013-07-06 18:47:00,
2013-07-06 13:04:00,64.0,43.0,-100.00,South,172,5.0,10.0,47,-99.99,,,-99.99,,2013-07-06 19:04:00,
2013-07-06 13:15:00,64.0,43.0,-100.00,South,172,8.0,12.0,47,-99.99,,,-99.99,,2013-07-06 19:15:00,
2013-07-06 13:35:00,64.0,43.0,-100.00,South,176,8.0,14.0,46,-99.99,,,-99.99,,2013-07-06 19:35:00,
2013-07-06 13:46:00,60.0,42.0,-100.00,SSW,193,6.0,24.0,51,-99.99,,,-99.99,,2013-07-06 19:46:00,
2013-07-06 14:26:00,50.0,44.0,-100.00,NW,316,17.0,41.0,79,-99.99,,,-99.99,,2013-07-06 20:26:00,
2013-07-06 14:37:00,48.0,42.0,-100.00,WNW,303,13.0,20.0,81,-99.99,,,-99.99,,2013-07-06 20:37:00,
2013-07-06 15:04:00,50.0,38.0,-100.00,WNW,297,22.0,54.0,62,-99.99,,,-99.99,,2013-07-06 21:04:00,
2013-07-06 15:14:00,51.0,40.0,-100.00,NW,318,16.0,23.0,66,-99.99,,,-99.99,,2013-07-06 21:14:00,
2013-07-06 15:26:00,51.0,40.0,-100.00,NW,318,16.0,23.0,66,-99.99,,,-99.99,,2013-07-06 21:26:00,
2013-07-06 15:36:00,52.0,38.0,-100.00,NW,313,13.0,21.0,58,-99.99,,,-99.99,,2013-07-06 21:36:00,
2013-07-06 15:47:00,50.0,38.0,-100.00,NW,319,14.0,27.0,62,-99.99,,,-99.99,,2013-07-06 21:47:00,
2013-07-06 16:03:00,50.0,38.0,-100.00,NW,319,14.0,27.0,62,-99.99,,,-99.99,,2013-07-06 22:03:00,
2013-07-06 16:25:00,45.0,38.0,-100.00,NW,313,21.0,30.0,75,-99.99,,,-99.99,,2013-07-06 22:25:00,
2013-07-06 16:36:00,47.0,35.0,-100.00,West,267,13.0,35.0,62,-99.99,,,-99.99,,2013-07-06 22:36:00,
2013-07-06 17:04:00,46.0,36.0,-100.00,WSW,255,10.0,59.0,68,-99.99,,,-99.99,,2013-07-06 23:04:00,
2013-07-06 17:15:00,46.0,38.0,-100.00,NW,304,8.0,31.0,73,-99.99,,,-99.99,,2013-07-06 23:15:00,
2013-07-06 17:26:00,46.0,38.0,-100.00,NW,304,8.0,31.0,73,-99.99,,,-99.99,,2013-07-06 23:26:00,
2013-07-06 17:37:00,51.0,39.0,-100.00,West,264,5.0,11.0,64,-99.99,,,-99.99,,2013-07-06 23:37:00,
2013-07-06 18:05:00,51.0,42.0,-100.00,West,259,5.0,12.0,70,-99.99,,,-99.99,,2013-07-07 00:05:00,
2013-07-06 18:15:00,52.0,42.0,-100.00,WSW,250,4.0,12.0,68,-99.99,,,-99.99,,2013-07-07 00:15:00,
2013-07-06 18:35:00,51.0,40.0,-100.00,SW,222,2.0,6.0,67,-99.99,,,-99.99,,2013-07-07 00:35:00,
2013-07-06 19:04:00,52.0,40.0,-100.00,South,170,6.0,12.0,64,-99.99,,,-99.99,,2013-07-07 01:04:00,
2013-07-06 19:13:00,49.0,38.0,-100.00,East,97,6.0,7.0,66,-99.99,,,-99.99,,2013-07-07 01:13:00,
2013-07-06 19:25:00,49.0,38.0,-100.00,East,97,6.0,7.0,66,-99.99,,,-99.99,,2013-07-07 01:25:00,
2013-07-06 19:34:00,49.0,37.0,-100.00,ESE,112,4.0,7.0,63,-99.99,,,-99.99,,2013-07-07 01:34:00,
2013-07-06 19:46:00,49.0,36.0,-100.00,South,183,4.0,8.0,61,-99.99,,,-99.99,,2013-07-07 01:46:00,
2013-07-06 20:03:00,49.0,36.0,-100.00,South,183,4.0,8.0,61,-99.99,,,-99.99,,2013-07-07 02:03:00,
2013-07-06 20:14:00,49.0,36.0,-100.00,South,183,14.0,25.0,61,-99.99,,,-99.99,,2013-07-07 02:14:00,
2013-07-06 20:24:00,49.0,36.0,-100.00,South,183,14.0,25.0,61,-99.99,,,-99.99,,2013-07-07 02:24:00,
2013-07-06 20:33:00,50.0,38.0,-100.00,South,174,13.0,21.0,63,-99.99,,,-99.99,,2013-07-07 02:33:00,
2013-07-06 20:58:00,49.0,37.0,-100.00,SSW,199,11.0,20.0,63,-99.99,,,-99.99,,2013-07-07 02:58:00,
2013-07-06 21:03:00,50.0,36.0,-100.00,NW,311,11.0,20.0,58,-99.99,,,-99.99,,2013-07-07 03:03:00,
2013-07-06 21:13:00,50.0,38.0,-100.00,SE,145,6.0,11.0,63,-99.99,,,-99.99,,2013-07-07 03:13:00,
2013-07-06 21:24:00,50.0,38.0,-100.00,SE,145,6.0,11.0,63,-99.99,,,-99.99,,2013-07-07 03:24:00,
2013-07-06 21:32:00,47.0,40.0,-100.00,SE,138,11.0,19.0,77,-99.99,,,-99.99,,2013-07-07 03:32:00,
2013-07-06 21:44:00,46.0,38.0,-100.00,NE,52,12.0,22.0,74,-99.99,,,-99.99,,2013-07-07 03:44:00,
2013-07-06 22:01:00,46.0,37.0,-100.00,NE,40,11.0,23.0,72,-99.99,,,-99.99,,2013-07-07 04:01:00,
2013-07-06 22:11:00,46.0,36.0,-100.00,NE,35,8.0,19.0,68,-99.99,,,-99.99,,2013-07-07 04:11:00,
2013-07-06 22:21:00,46.0,36.0,-100.00,NE,35,8.0,19.0,68,-99.99,,,-99.99,,2013-07-07 04:21:00,
2013-07-06 22:31:00,46.0,35.0,-100.00,NE,54,9.0,22.0,66,-99.99,,,-99.99,,2013-07-07 04:31:00,
2013-07-06 22:41:00,46.0,36.0,-100.00,NE,43,10.0,21.0,67,-99.99,,,-99.99,,2013-07-07 04:41:00,
2013-07-06 22:51:00,46.0,36.0,-100.00,NE,43,10.0,21.0,67,-99.99,,,-99.99,,2013-07-07 04:51:00,
2013-07-06 23:01:00,46.0,36.0,-100.00,NE,36,9.0,21.0,69,-99.99,,,-99.99,,2013-07-07 05:01:00,
2013-07-06 23:11:00,45.0,37.0,-100.00,NE,55,10.0,21.0,72,-99.99,,,-99.99,,2013-07-07 05:11:00,
2013-07-06 23:21:00,45.0,37.0,-100.00,NE,55,10.0,21.0,72,-99.99,,,-99.99,,2013-07-07 05:21:00,
2013-07-06 23:31:00,44.0,37.0,-100.00,NE,39,11.0,21.0,75,-99.99,,,-99.99,,2013-07-07 05:31:00,
2013-07-06 23:41:00,45.0,37.0,-100.00,NE,41,11.0,18.0,72,-99.99,,,-99.99,,2013-07-07 05:41:00,
2013-07-06 23:51:00,45.0,37.0,-100.00,NE,41,11.0,18.0,72,-99.99,,,-99.99,,2013-07-07 05:51:00,